createdAt,value
2023-05-10T00:01:29.601Z,98133.81
2023-05-10T00:03:57.797Z,98131.23
2023-05-10T00:06:26.082Z,98126.85
2023-05-10T00:08:54.328Z,98125.04
2023-05-10T00:11:23.121Z,98123.16
2023-05-10T00:13:51.400Z,98121.52
2023-05-10T00:16:19.458Z,98120.23
2023-05-10T00:18:47.576Z,98118.76
2023-05-10T00:21:17.681Z,98118.86
2023-05-10T00:23:45.906Z,98114.39
2023-05-10T00:26:13.887Z,98110.81
2023-05-10T00:28:43.081Z,98110.48
2023-05-10T00:31:11.463Z,98112.77
2023-05-10T00:33:39.501Z,98117.30
2023-05-10T00:36:08.510Z,98114.81
2023-05-10T00:38:36.495Z,98115.46
2023-05-10T00:41:05.069Z,98117.30
2023-05-10T00:43:33.765Z,98115.70
2023-05-10T00:46:01.999Z,98115.79
2023-05-10T00:48:30.711Z,98114.24
2023-05-10T00:50:58.773Z,98113.00
2023-05-10T00:53:28.373Z,98111.65
2023-05-10T00:55:58.193Z,98110.25
2023-05-10T00:58:29.402Z,98105.94
2023-05-10T01:00:58.817Z,98108.39
2023-05-10T01:03:27.499Z,98107.12
2023-05-10T01:05:56.299Z,98103.77
2023-05-10T01:08:24.600Z,98103.44
2023-05-10T01:10:54.170Z,98103.86
2023-05-10T01:13:38.384Z,98099.04
2023-05-10T01:16:07.901Z,98096.39
2023-05-10T01:18:42.660Z,98093.86
2023-05-10T01:21:16.593Z,98090.89
2023-05-10T01:24:09.549Z,98090.34
2023-05-10T01:27:25.401Z,98092.77
2023-05-10T01:30:18.547Z,98096.65
2023-05-10T01:33:08.329Z,98096.73
2023-05-10T01:36:27.303Z,98096.83
2023-05-10T01:39:25.589Z,98099.87
2023-05-10T01:42:15.848Z,98100.62
2023-05-10T01:44:59.006Z,98103.91
2023-05-10T01:47:38.506Z,98100.52
2023-05-10T01:50:16.284Z,98097.64
2023-05-10T01:52:51.197Z,98096.58
2023-05-10T01:55:24.441Z,98092.80
2023-05-10T01:57:58.721Z,98092.27
2023-05-10T02:00:28.908Z,98093.20
2023-05-10T02:02:58.430Z,98092.15
2023-05-10T02:05:28.845Z,98093.11
2023-05-10T02:07:59.817Z,98090.96
2023-05-10T02:10:29.700Z,98093.51
2023-05-10T02:13:01.156Z,98094.19
2023-05-10T02:15:31.046Z,98094.85
2023-05-10T02:18:02.025Z,98090.98
2023-05-10T02:20:32.381Z,98090.48
2023-05-10T02:23:02.037Z,98090.58
2023-05-10T02:25:33.269Z,98091.40
2023-05-10T02:28:04.155Z,98094.42
2023-05-10T02:30:34.640Z,98096.93
2023-05-10T02:33:05.501Z,98097.03
2023-05-10T02:35:35.016Z,98094.83
2023-05-10T02:38:05.230Z,98092.85
2023-05-10T02:40:34.984Z,98091.34
2023-05-10T02:43:03.712Z,98092.96
2023-05-10T02:45:34.741Z,98092.99
2023-05-10T02:48:03.900Z,98088.23
2023-05-10T02:50:34.535Z,98085.92
2023-05-10T02:53:08.223Z,98083.87
2023-05-10T02:55:43.136Z,98083.69
2023-05-10T02:58:11.176Z,98082.45
2023-05-10T03:00:39.324Z,98083.67
2023-05-10T03:03:08.061Z,98079.61
2023-05-10T03:05:36.184Z,98076.50
2023-05-10T03:08:05.853Z,98078.21
2023-05-10T03:10:39.247Z,98077.06
2023-05-10T03:13:12.435Z,98079.08
2023-05-10T03:15:43.649Z,98077.05
2023-05-10T03:18:18.054Z,98078.59
2023-05-10T03:20:50.026Z,98081.50
2023-05-10T03:23:28.354Z,98083.31
2023-05-10T03:25:56.743Z,98079.66
2023-05-10T03:28:27.958Z,98081.13
2023-05-10T03:30:57.752Z,98080.80
2023-05-10T03:33:26.064Z,98072.55
2023-05-10T03:35:54.763Z,98074.14
2023-05-10T03:38:22.740Z,98074.01
2023-05-10T03:40:51.018Z,98073.86
2023-05-10T03:43:19.130Z,98072.38
2023-05-10T03:45:47.837Z,98071.75
2023-05-10T03:48:16.025Z,98067.88
2023-05-10T03:50:44.380Z,98066.11
2023-05-10T03:53:13.611Z,98067.05
2023-05-10T03:55:41.797Z,98066.20
2023-05-10T03:58:12.941Z,98063.17
2023-05-10T04:00:47.061Z,98061.59
2023-05-10T04:03:16.948Z,98059.75
2023-05-10T04:05:45.156Z,98058.32
2023-05-10T04:08:13.746Z,98060.17
2023-05-10T04:10:42.121Z,98058.04
2023-05-10T04:13:10.149Z,98057.54
2023-05-10T04:15:38.565Z,98056.90
2023-05-10T04:18:08.649Z,98053.80
2023-05-10T04:20:37.000Z,98058.08
2023-05-10T04:23:04.973Z,98053.96
2023-05-10T04:25:36.065Z,98058.27
2023-05-10T04:28:04.390Z,98053.23
2023-05-10T04:30:32.455Z,98055.58
2023-05-10T04:33:00.754Z,98054.05
2023-05-10T04:35:29.525Z,98053.30
2023-05-10T04:37:57.557Z,98053.39
2023-05-10T04:40:25.796Z,98052.27
2023-05-10T04:42:53.958Z,98049.55
2023-05-10T04:45:23.614Z,98051.83
2023-05-10T04:47:52.016Z,98055.38
2023-05-10T04:50:20.538Z,98056.17
2023-05-10T04:52:48.659Z,98053.98
2023-05-10T04:55:17.134Z,98053.77
2023-05-10T04:57:46.225Z,98056.14
2023-05-10T05:00:15.413Z,98056.97
2023-05-10T05:02:48.041Z,98053.71
2023-05-10T05:05:16.542Z,98049.91
2023-05-10T05:07:44.774Z,98053.42
2023-05-10T05:10:13.072Z,98050.64
2023-05-10T05:12:41.451Z,98051.80
2023-05-10T05:15:10.811Z,98053.27
2023-05-10T05:17:38.851Z,98050.95
2023-05-10T05:20:07.665Z,98047.90
2023-05-10T05:22:37.874Z,98045.91
2023-05-10T05:25:07.128Z,98045.09
2023-05-10T05:27:35.584Z,98042.52
2023-05-10T05:30:06.112Z,98041.41
2023-05-10T05:32:34.447Z,98043.15
2023-05-10T05:35:03.238Z,98040.09
2023-05-10T05:37:31.681Z,98038.44
2023-05-10T05:40:02.876Z,98037.45
2023-05-10T05:42:32.298Z,98036.66
2023-05-10T05:45:00.756Z,98039.21
2023-05-10T05:47:29.281Z,98034.65
2023-05-10T05:49:59.504Z,98038.52
2023-05-10T05:52:29.274Z,98039.05
2023-05-10T05:54:58.237Z,98043.08
2023-05-10T05:57:27.807Z,98038.73
2023-05-10T05:59:55.829Z,98043.14
2023-05-10T06:02:24.172Z,98043.41
2023-05-10T06:04:52.669Z,98043.11
2023-05-10T06:07:21.305Z,98040.10
2023-05-10T06:09:50.654Z,98042.20
2023-05-10T06:12:18.772Z,98044.27
2023-05-10T06:14:47.285Z,98040.43
2023-05-10T06:17:15.712Z,98040.36
2023-05-10T06:19:45.938Z,98039.20
2023-05-10T06:22:14.548Z,98045.27
2023-05-10T06:24:44.690Z,98040.46
2023-05-10T06:27:12.876Z,98039.75
2023-05-10T06:29:41.360Z,98036.33
2023-05-10T06:32:09.417Z,98037.30
2023-05-10T06:34:43.116Z,98035.31
2023-05-10T06:37:11.725Z,98030.70
2023-05-10T06:39:39.853Z,98032.63
2023-05-10T06:42:10.684Z,98033.06
2023-05-10T06:44:39.838Z,98030.14
2023-05-10T06:47:08.993Z,98031.90
2023-05-10T06:49:48.208Z,98030.00
2023-05-10T06:52:16.757Z,98029.05
2023-05-10T06:54:45.509Z,98025.90
2023-05-10T06:57:30.569Z,98026.46
2023-05-10T07:00:00.745Z,98025.13
2023-05-10T07:02:31.362Z,98025.39
2023-05-10T07:05:02.362Z,98025.69
2023-05-10T07:07:35.064Z,98029.33
2023-05-10T07:10:04.452Z,98021.44
2023-05-10T07:12:32.969Z,98020.02
2023-05-10T07:15:02.598Z,98020.27
2023-05-10T07:17:32.008Z,98019.18
2023-05-10T07:20:01.970Z,98020.25
2023-05-10T07:22:31.407Z,98019.83
2023-05-10T07:24:59.849Z,98021.46
2023-05-10T07:27:28.043Z,98027.48
2023-05-10T07:29:57.669Z,98021.19
2023-05-10T07:32:27.741Z,98017.02
2023-05-10T07:34:56.877Z,98020.46
2023-05-10T07:37:32.748Z,98022.05
2023-05-10T07:42:49.532Z,98020.20
2023-05-10T07:45:18.074Z,98019.36
2023-05-10T07:47:46.784Z,98018.73
2023-05-10T07:50:15.580Z,98017.63
2023-05-10T07:52:44.033Z,98018.33
2023-05-10T07:55:16.293Z,98013.48
2023-05-10T07:57:58.539Z,98015.90
2023-05-10T08:00:27.075Z,98017.50
2023-05-10T08:02:59.523Z,98013.67
2023-05-10T08:05:28.726Z,98021.33
2023-05-10T08:07:56.904Z,98018.02
2023-05-10T08:10:25.824Z,98012.27
2023-05-10T08:12:55.035Z,98014.19
2023-05-10T08:15:23.484Z,98009.80
2023-05-10T08:17:55.934Z,98011.10
2023-05-10T08:20:24.542Z,98011.52
2023-05-10T08:22:55.597Z,98007.08
2023-05-10T08:25:25.770Z,98008.45
2023-05-10T08:27:54.626Z,98007.34
2023-05-10T08:30:23.076Z,98002.66
2023-05-10T08:32:52.350Z,97998.80
2023-05-10T08:35:20.790Z,98001.23
2023-05-10T08:37:48.987Z,98002.95
2023-05-10T08:40:17.405Z,98004.47
2023-05-10T08:42:58.967Z,98001.52
2023-05-10T08:45:32.270Z,98002.15
2023-05-10T08:48:07.952Z,97999.31
2023-05-10T08:50:44.027Z,97996.20
2023-05-10T08:53:14.656Z,97996.95
2023-05-10T08:55:44.025Z,97993.58
2023-05-10T08:58:12.244Z,97990.77
2023-05-10T09:00:41.447Z,97984.94
2023-05-10T09:03:11.779Z,97987.06
2023-05-10T09:05:40.254Z,97983.98
2023-05-10T09:08:09.820Z,97981.89
2023-05-10T09:10:41.275Z,97984.33
2023-05-10T09:13:13.173Z,97978.48
2023-05-10T09:15:47.843Z,97977.51
2023-05-10T09:18:17.200Z,97976.37
2023-05-10T09:20:45.986Z,97976.15
2023-05-10T09:23:14.624Z,97969.15
2023-05-10T09:26:24.711Z,97968.91
2023-05-10T09:29:51.530Z,97976.65
2023-05-10T09:32:47.197Z,97969.98
2023-05-10T09:35:20.262Z,97963.39
2023-05-10T09:38:08.402Z,97965.29
2023-05-10T09:40:37.579Z,97961.78
2023-05-10T09:43:08.765Z,97958.48
2023-05-10T09:45:38.847Z,97957.65
2023-05-10T09:48:08.707Z,97954.44
2023-05-10T09:50:37.745Z,97949.59
2023-05-10T09:53:06.987Z,97945.05
2023-05-10T09:55:46.321Z,97944.61
2023-05-10T09:58:15.940Z,97942.56
2023-05-10T10:00:49.019Z,97935.04
2023-05-10T10:03:27.778Z,97934.31
2023-05-10T10:05:58.003Z,97934.30
2023-05-10T10:08:28.076Z,97936.46
2023-05-10T10:10:57.291Z,97936.45
2023-05-10T10:13:26.512Z,97935.23
2023-05-10T10:15:56.201Z,97927.27
2023-05-10T10:18:30.951Z,97923.63
2023-05-10T10:21:00.510Z,97918.42
2023-05-10T10:23:31.399Z,97915.85
2023-05-10T10:26:04.195Z,97911.83
2023-05-10T10:29:07.464Z,97912.40
2023-05-10T10:32:05.756Z,97910.98
2023-05-10T10:34:34.947Z,97901.05
2023-05-10T10:37:08.104Z,97901.67
2023-05-10T10:39:37.978Z,97895.38
2023-05-10T10:42:07.170Z,97893.92
2023-05-10T10:44:38.204Z,97897.27
2023-05-10T10:47:10.670Z,97889.66
2023-05-10T10:49:43.594Z,97886.23
2023-05-10T10:52:43.960Z,97886.70
2023-05-10T10:55:20.628Z,97887.14
2023-05-10T10:58:01.980Z,97889.65
2023-05-10T11:00:39.447Z,97885.25
2023-05-10T11:03:20.266Z,97885.94
2023-05-10T11:06:10.452Z,97879.23
2023-05-10T11:08:53.036Z,97881.58
2023-05-10T11:11:36.694Z,97883.16
2023-05-10T11:14:25.837Z,97872.12
2023-05-10T11:16:58.338Z,97870.80
2023-05-10T11:19:31.258Z,97864.99
2023-05-10T11:22:05.663Z,97859.77
2023-05-10T11:24:36.176Z,97860.57
2023-05-10T11:27:07.671Z,97858.31
2023-05-10T11:29:37.573Z,97857.91
2023-05-10T11:32:09.235Z,97859.13
2023-05-10T11:34:37.506Z,97852.84
2023-05-10T11:37:06.062Z,97853.83
2023-05-10T11:39:35.200Z,97855.29
2023-05-10T11:42:13.546Z,97854.78
2023-05-10T11:44:43.759Z,97854.13
2023-05-10T11:47:17.561Z,97854.67
2023-05-10T11:49:49.742Z,97851.84
2023-05-10T11:52:20.244Z,97848.86
2023-05-10T11:54:55.808Z,97847.20
2023-05-10T11:57:32.364Z,97845.46
2023-05-10T12:00:06.443Z,97839.92
2023-05-10T12:02:36.587Z,97843.13
2023-05-10T12:05:06.520Z,97836.23
2023-05-10T12:07:36.353Z,97840.45
2023-05-10T12:10:16.598Z,97835.02
2023-05-10T12:12:49.651Z,97834.81
2023-05-10T12:15:26.166Z,97834.39
2023-05-10T12:17:56.576Z,97836.45
2023-05-10T12:20:31.212Z,97830.83
2023-05-10T12:23:00.944Z,97828.57
2023-05-10T12:25:39.268Z,97829.86
2023-05-10T12:28:11.910Z,97826.16
2023-05-10T12:30:40.565Z,97821.23
2023-05-10T12:33:15.677Z,97821.06
2023-05-10T12:35:49.753Z,97815.94
2023-05-10T12:38:35.540Z,97818.66
2023-05-10T12:41:05.897Z,97811.55
2023-05-10T12:43:52.656Z,97807.92
2023-05-10T12:46:48.122Z,97803.34
2023-05-10T12:49:21.426Z,97804.23
2023-05-10T12:51:51.093Z,97796.50
2023-05-10T12:54:20.045Z,97801.19
2023-05-10T12:56:49.167Z,97797.11
2023-05-10T12:59:24.379Z,97791.44
2023-05-10T13:01:53.000Z,97790.22
2023-05-10T13:04:21.750Z,97794.08
2023-05-10T13:06:51.618Z,97789.52
2023-05-10T13:09:21.677Z,97784.72
2023-05-10T13:11:50.416Z,97781.13
2023-05-10T13:14:21.677Z,97779.55
2023-05-10T13:16:50.034Z,97779.74
2023-05-10T13:19:21.734Z,97780.13
2023-05-10T13:21:51.475Z,97777.90
2023-05-10T13:24:20.103Z,97772.69
2023-05-10T13:26:49.803Z,97770.00
2023-05-10T13:29:20.915Z,97769.38
2023-05-10T13:31:49.532Z,97769.82
2023-05-10T13:34:21.712Z,97769.83
2023-05-10T13:36:51.022Z,97762.95
2023-05-10T13:39:19.517Z,97752.85
2023-05-10T13:41:50.322Z,97755.34
2023-05-10T13:44:21.884Z,97758.68
2023-05-10T13:46:50.957Z,97758.23
2023-05-10T13:49:21.267Z,97753.70
2023-05-10T13:51:50.680Z,97752.41
2023-05-10T13:54:22.810Z,97749.14
2023-05-10T13:56:51.851Z,97747.73
2023-05-10T13:59:23.157Z,97741.54
2023-05-10T14:01:52.350Z,97740.40
2023-05-10T14:04:20.881Z,97738.52
2023-05-10T14:06:49.313Z,97739.30
2023-05-10T14:09:18.214Z,97737.73
2023-05-10T14:11:47.013Z,97735.55
2023-05-10T14:14:15.399Z,97735.34
2023-05-10T14:16:48.028Z,97730.35
2023-05-10T14:19:16.451Z,97724.88
2023-05-10T14:21:54.332Z,97724.61
2023-05-10T14:24:22.652Z,97725.08
2023-05-10T14:26:54.688Z,97721.92
2023-05-10T14:29:23.352Z,97722.66
2023-05-10T14:31:52.811Z,97718.84
2023-05-10T14:34:21.366Z,97715.53
2023-05-10T14:36:49.705Z,97715.70
2023-05-10T14:39:18.416Z,97719.92
2023-05-10T14:41:50.963Z,97717.41
2023-05-10T14:44:20.026Z,97714.83
2023-05-10T14:46:50.090Z,97715.95
2023-05-10T14:49:18.387Z,97720.96
2023-05-10T14:51:47.349Z,97717.63
2023-05-10T14:54:16.017Z,97713.13
2023-05-10T14:56:46.692Z,97718.57
2023-05-10T14:59:14.922Z,97725.73
2023-05-10T15:01:45.456Z,97728.02
2023-05-10T15:04:14.537Z,97727.51
2023-05-10T15:06:44.101Z,97724.58
2023-05-10T15:09:12.366Z,97722.12
2023-05-10T15:11:40.537Z,97720.63
2023-05-10T15:14:08.665Z,97722.02
2023-05-10T15:16:37.438Z,97720.13
2023-05-10T15:19:05.714Z,97716.42
2023-05-10T15:21:40.071Z,97713.05
2023-05-10T15:24:11.331Z,97713.16
2023-05-10T15:26:39.579Z,97712.62
2023-05-10T15:29:21.406Z,97716.61
2023-05-10T15:31:54.905Z,97719.19
2023-05-10T15:34:24.181Z,97714.79
2023-05-10T15:36:53.095Z,97717.11
2023-05-10T15:39:21.371Z,97708.79
2023-05-10T15:41:50.193Z,97708.66
2023-05-10T15:44:19.730Z,97708.55
2023-05-10T15:46:48.103Z,97712.90
2023-05-10T15:49:17.401Z,97711.04
2023-05-10T15:51:45.468Z,97709.98
2023-05-10T15:54:15.203Z,97711.99
2023-05-10T15:56:44.382Z,97711.74
2023-05-10T15:59:13.576Z,97707.88
2023-05-10T16:01:42.261Z,97709.45
2023-05-10T16:04:12.568Z,97712.52
2023-05-10T16:06:40.833Z,97710.45
2023-05-10T16:09:08.997Z,97707.85
2023-05-10T16:11:37.522Z,97706.86
2023-05-10T16:14:07.118Z,97708.48
2023-05-10T16:16:35.754Z,97708.83
2023-05-10T16:19:04.732Z,97706.80
2023-05-10T16:21:34.074Z,97711.05
2023-05-10T16:24:03.470Z,97712.30
2023-05-10T16:26:41.017Z,97711.55
2023-05-10T16:29:10.621Z,97713.99
2023-05-10T16:31:39.263Z,97713.32
2023-05-10T16:34:07.484Z,97711.61
2023-05-10T16:36:35.589Z,97715.81
2023-05-10T16:39:05.070Z,97719.48
2023-05-10T16:41:34.456Z,97716.96
2023-05-10T16:44:03.760Z,97720.14
2023-05-10T16:46:33.135Z,97722.90
2023-05-10T16:49:01.880Z,97724.84
2023-05-10T16:51:33.081Z,97725.63
2023-05-10T16:54:02.128Z,97728.42
2023-05-10T16:56:30.436Z,97730.52
2023-05-10T16:58:58.769Z,97732.89
2023-05-10T17:01:27.577Z,97735.00
2023-05-10T17:03:56.683Z,97735.39
2023-05-10T17:06:25.338Z,97734.23
2023-05-10T17:08:54.750Z,97735.37
2023-05-10T17:11:22.835Z,97738.53
2023-05-10T17:13:52.467Z,97743.88
2023-05-10T17:16:21.504Z,97743.77
2023-05-10T17:18:49.825Z,97745.77
2023-05-10T17:21:21.607Z,97749.06
2023-05-10T17:23:51.700Z,97750.30
2023-05-10T17:26:21.558Z,97753.16
2023-05-10T17:28:49.561Z,97755.98
2023-05-10T17:31:19.135Z,97757.80
2023-05-10T17:33:47.453Z,97758.98
2023-05-10T17:36:15.706Z,97761.23
2023-05-10T17:38:43.847Z,97762.09
2023-05-10T17:41:14.436Z,97763.86
2023-05-10T17:43:43.635Z,97765.96
2023-05-10T17:46:13.059Z,97766.02
2023-05-10T17:48:42.015Z,97765.75
2023-05-10T17:51:18.389Z,97771.14
2023-05-10T17:53:48.168Z,97773.69
2023-05-10T17:56:16.306Z,97778.35
2023-05-10T17:58:44.561Z,97782.30
2023-05-10T18:01:13.394Z,97783.98
2023-05-10T18:03:43.190Z,97788.09
2023-05-10T18:06:11.325Z,97793.88
2023-05-10T18:08:39.465Z,97794.03
2023-05-10T18:11:09.760Z,97796.23
2023-05-10T18:13:38.505Z,97802.07
2023-05-10T18:16:10.182Z,97804.56
2023-05-10T18:18:39.627Z,97807.65
2023-05-10T18:21:07.728Z,97815.50
2023-05-10T18:23:35.912Z,97817.23
2023-05-10T18:26:04.124Z,97823.73
2023-05-10T18:28:32.396Z,97827.05
2023-05-10T18:31:01.007Z,97826.98
2023-05-10T18:33:29.243Z,97829.53
2023-05-10T18:35:57.346Z,97831.10
2023-05-10T18:38:25.518Z,97831.98
2023-05-10T18:40:55.692Z,97834.11
2023-05-10T18:43:23.974Z,97835.95
2023-05-10T18:45:52.971Z,97834.29
2023-05-10T18:48:22.904Z,97830.70
2023-05-10T18:50:51.272Z,97833.30
2023-05-10T18:53:19.431Z,97834.98
2023-05-10T18:55:55.824Z,97838.01
2023-05-10T18:58:24.122Z,97843.91
2023-05-10T19:00:52.653Z,97843.55
2023-05-10T19:03:22.062Z,97844.92
2023-05-10T19:05:50.755Z,97849.61
2023-05-10T19:08:18.834Z,97845.92
2023-05-10T19:10:47.240Z,97847.05
2023-05-10T19:13:15.551Z,97849.77
2023-05-10T19:15:44.270Z,97854.11
2023-05-10T19:18:13.821Z,97854.52
2023-05-10T19:20:42.544Z,97859.17
2023-05-10T19:23:10.796Z,97861.95
2023-05-10T19:25:39.905Z,97866.37
2023-05-10T19:28:11.812Z,97861.40
2023-05-10T19:30:40.297Z,97865.89
2023-05-10T19:33:10.188Z,97866.11
2023-05-10T19:35:38.406Z,97869.17
2023-05-10T19:38:07.016Z,97867.83
2023-05-10T19:40:36.247Z,97873.55
2023-05-10T19:43:04.792Z,97872.36
2023-05-10T19:45:32.963Z,97872.68
2023-05-10T19:48:01.489Z,97874.64
2023-05-10T19:50:29.583Z,97869.34
2023-05-10T19:52:58.537Z,97871.58
2023-05-10T19:55:31.327Z,97873.62
2023-05-10T19:58:02.764Z,97875.13
2023-05-10T20:00:31.712Z,97870.44
2023-05-10T20:02:59.951Z,97867.91
2023-05-10T20:05:31.307Z,97871.46
2023-05-10T20:07:59.347Z,97871.37
2023-05-10T20:10:27.406Z,97873.12
2023-05-10T20:12:55.585Z,97877.27
2023-05-10T20:15:23.757Z,97880.13
2023-05-10T20:17:53.720Z,97876.15
2023-05-10T20:20:22.365Z,97876.97
2023-05-10T20:22:50.694Z,97875.11
2023-05-10T20:25:19.092Z,97878.52
2023-05-10T20:27:47.213Z,97874.28
2023-05-10T20:30:16.378Z,97876.64
2023-05-10T20:32:44.855Z,97876.32
2023-05-10T20:35:12.997Z,97870.84
2023-05-10T20:37:42.361Z,97877.50
2023-05-10T20:40:11.169Z,97883.48
2023-05-10T20:42:39.326Z,97884.55
2023-05-10T20:45:07.868Z,97884.55
2023-05-10T20:47:36.182Z,97886.57
2023-05-10T20:50:05.938Z,97886.60
2023-05-10T20:52:33.974Z,97882.86
2023-05-10T20:55:02.164Z,97885.61
2023-05-10T20:57:32.416Z,97889.80
2023-05-10T21:00:01.882Z,97892.33
2023-05-10T21:02:30.059Z,97893.02
2023-05-10T21:04:58.328Z,97894.89
2023-05-10T21:07:26.443Z,97894.67
2023-05-10T21:09:54.350Z,97897.45
2023-05-10T21:12:22.349Z,97898.80
2023-05-10T21:14:50.382Z,97898.64
2023-05-10T21:17:20.131Z,97906.60
2023-05-10T21:19:49.366Z,97906.65
2023-05-10T21:22:17.580Z,97904.01
2023-05-10T21:24:45.718Z,97906.59
2023-05-10T21:27:14.069Z,97899.03
2023-05-10T21:29:42.100Z,97900.62
2023-05-10T21:32:10.606Z,97894.00
2023-05-10T21:34:38.663Z,97897.52
2023-05-10T21:37:07.496Z,97896.65
2023-05-10T21:39:36.048Z,97903.29
2023-05-10T21:42:04.287Z,97905.27
2023-05-10T21:44:32.649Z,97903.79
2023-05-10T21:47:00.898Z,97904.83
2023-05-10T21:49:28.890Z,97909.27
2023-05-10T21:51:57.053Z,97911.14
2023-05-10T21:54:25.322Z,97912.57
2023-05-10T21:56:53.705Z,97909.59
2023-05-10T21:59:21.798Z,97908.35
2023-05-10T22:01:50.818Z,97911.52
2023-05-10T22:04:19.363Z,97916.27
2023-05-10T22:06:47.982Z,97920.61
2023-05-10T22:09:16.506Z,97922.76
2023-05-10T22:11:44.547Z,97929.69
2023-05-10T22:14:12.628Z,97925.98
2023-05-10T22:16:40.693Z,97926.16
2023-05-10T22:19:09.806Z,97927.77
2023-05-10T22:21:38.009Z,97927.39
2023-05-10T22:24:06.186Z,97929.12
2023-05-10T22:26:36.241Z,97932.41
2023-05-10T22:29:04.497Z,97932.09
2023-05-10T22:31:32.809Z,97934.09
2023-05-10T22:34:00.845Z,97932.34
2023-05-10T22:36:30.152Z,97929.55
2023-05-10T22:38:58.607Z,97933.02
2023-05-10T22:41:26.706Z,97936.16
2023-05-10T22:43:54.801Z,97936.77
2023-05-10T22:46:23.827Z,97931.23
2023-05-10T22:48:52.488Z,97930.92
2023-05-10T22:51:21.319Z,97931.13
2023-05-10T22:53:49.388Z,97931.67
2023-05-10T22:56:17.463Z,97927.24
2023-05-10T22:58:45.826Z,97928.64
2023-05-10T23:01:13.943Z,97929.29
2023-05-10T23:03:42.457Z,97927.75
2023-05-10T23:06:11.424Z,97926.19
2023-05-10T23:08:39.861Z,97923.88
2023-05-10T23:11:08.249Z,97927.10
2023-05-10T23:13:36.565Z,97925.80
2023-05-10T23:16:06.562Z,97929.39
2023-05-10T23:18:34.783Z,97929.97
2023-05-10T23:21:02.980Z,97930.95
2023-05-10T23:23:32.768Z,97929.36
2023-05-10T23:26:01.577Z,97926.94
2023-05-10T23:28:29.515Z,97926.48
2023-05-10T23:30:58.842Z,97930.64
2023-05-10T23:33:26.922Z,97931.64
2023-05-10T23:35:55.251Z,97934.29
2023-05-10T23:38:23.363Z,97929.75
2023-05-10T23:40:51.598Z,97929.33
2023-05-10T23:43:19.909Z,97930.05
2023-05-10T23:45:56.665Z,97935.34
2023-05-10T23:48:25.041Z,97932.11
2023-05-10T23:50:53.214Z,97932.02
2023-05-10T23:53:21.428Z,97930.34
2023-05-10T23:55:50.414Z,97933.32
2023-05-10T23:58:18.314Z,97931.02
